sensor_id;sensor_type;location;lat;lon;timestamp;P1;durP1;ratioP1;P2;durP2;ratioP2
4517;SDS011;2271;49.464;11.070;2022-12-07T00:00:50;4.70;;;4.20;;
4517;SDS011;2271;49.464;11.070;2022-12-07T00:03:15;4.53;;;3.40;;
4517;SDS011;2271;49.464;11.070;2022-12-07T00:05:41;4.33;;;3.93;;
4517;SDS011;2271;49.464;11.070;2022-12-07T00:08:06;4.90;;;3.93;;
4517;SDS011;2271;49.464;11.070;2022-12-07T00:10:35;4.33;;;3.50;;
4517;SDS011;2271;49.464;11.070;2022-12-07T00:13:01;3.97;;;3.30;;
4517;SDS011;2271;49.464;11.070;2022-12-07T00:15:26;5.03;;;3.97;;
4517;SDS011;2271;49.464;11.070;2022-12-07T00:17:52;5.17;;;3.93;;
4517;SDS011;2271;49.464;11.070;2022-12-07T00:20:17;5.17;;;4.37;;
4517;SDS011;2271;49.464;11.070;2022-12-07T00:22:43;6.27;;;3.50;;
4517;SDS011;2271;49.464;11.070;2022-12-07T00:25:09;5.30;;;4.20;;
4517;SDS011;2271;49.464;11.070;2022-12-07T00:27:34;4.70;;;4.20;;
4517;SDS011;2271;49.464;11.070;2022-12-07T00:30:00;4.47;;;3.87;;
4517;SDS011;2271;49.464;11.070;2022-12-07T00:32:26;4.50;;;4.10;;
4517;SDS011;2271;49.464;11.070;2022-12-07T00:34:51;5.67;;;4.10;;
4517;SDS011;2271;49.464;11.070;2022-12-07T00:37:17;5.17;;;4.67;;
4517;SDS011;2271;49.464;11.070;2022-12-07T00:39:42;5.90;;;4.43;;
4517;SDS011;2271;49.464;11.070;2022-12-07T00:42:08;5.03;;;3.73;;
4517;SDS011;2271;49.464;11.070;2022-12-07T00:44:34;5.47;;;4.20;;
4517;SDS011;2271;49.464;11.070;2022-12-07T00:46:59;5.93;;;4.47;;
4517;SDS011;2271;49.464;11.070;2022-12-07T00:49:25;6.13;;;4.57;;
4517;SDS011;2271;49.464;11.070;2022-12-07T00:51:50;7.80;;;4.50;;
4517;SDS011;2271;49.464;11.070;2022-12-07T00:54:16;5.27;;;4.07;;
4517;SDS011;2271;49.464;11.070;2022-12-07T00:56:41;6.57;;;4.93;;
4517;SDS011;2271;49.464;11.070;2022-12-07T00:59:10;6.07;;;4.90;;
4517;SDS011;2271;49.464;11.070;2022-12-07T01:01:38;7.03;;;4.97;;
4517;SDS011;2271;49.464;11.070;2022-12-07T01:04:03;5.90;;;4.73;;
4517;SDS011;2271;49.464;11.070;2022-12-07T01:06:29;5.47;;;4.83;;
4517;SDS011;2271;49.464;11.070;2022-12-07T01:08:55;7.77;;;4.87;;
4517;SDS011;2271;49.464;11.070;2022-12-07T01:11:22;5.63;;;4.77;;
4517;SDS011;2271;49.464;11.070;2022-12-07T01:13:50;5.33;;;4.80;;
4517;SDS011;2271;49.464;11.070;2022-12-07T01:16:17;5.60;;;5.10;;
4517;SDS011;2271;49.464;11.070;2022-12-07T01:18:45;9.17;;;5.20;;
4517;SDS011;2271;49.464;11.070;2022-12-07T01:21:17;5.97;;;4.93;;
4517;SDS011;2271;49.464;11.070;2022-12-07T01:23:47;5.50;;;4.93;;
4517;SDS011;2271;49.464;11.070;2022-12-07T01:26:15;5.57;;;5.03;;
4517;SDS011;2271;49.464;11.070;2022-12-07T01:28:42;7.47;;;5.00;;
4517;SDS011;2271;49.464;11.070;2022-12-07T01:31:12;7.30;;;5.40;;
4517;SDS011;2271;49.464;11.070;2022-12-07T01:33:43;5.90;;;4.47;;
4517;SDS011;2271;49.464;11.070;2022-12-07T01:36:15;6.90;;;5.37;;
4517;SDS011;2271;49.464;11.070;2022-12-07T01:38:42;9.10;;;5.70;;
4517;SDS011;2271;49.464;11.070;2022-12-07T01:41:09;7.07;;;5.60;;
4517;SDS011;2271;49.464;11.070;2022-12-07T01:43:35;5.63;;;4.67;;
4517;SDS011;2271;49.464;11.070;2022-12-07T01:46:01;8.90;;;5.77;;
4517;SDS011;2271;49.464;11.070;2022-12-07T01:48:37;8.07;;;5.33;;
4517;SDS011;2271;49.464;11.070;2022-12-07T01:51:08;6.00;;;4.97;;
4517;SDS011;2271;49.464;11.070;2022-12-07T01:53:38;6.40;;;5.60;;
4517;SDS011;2271;49.464;11.070;2022-12-07T01:56:07;7.63;;;5.90;;
4517;SDS011;2271;49.464;11.070;2022-12-07T01:58:36;7.17;;;5.67;;
4517;SDS011;2271;49.464;11.070;2022-12-07T02:01:02;7.17;;;5.47;;
4517;SDS011;2271;49.464;11.070;2022-12-07T02:03:32;9.53;;;6.73;;
4517;SDS011;2271;49.464;11.070;2022-12-07T02:06:04;5.53;;;4.60;;
4517;SDS011;2271;49.464;11.070;2022-12-07T02:08:31;6.07;;;4.97;;
4517;SDS011;2271;49.464;11.070;2022-12-07T02:10:58;7.90;;;4.97;;
4517;SDS011;2271;49.464;11.070;2022-12-07T02:13:25;6.67;;;5.90;;
4517;SDS011;2271;49.464;11.070;2022-12-07T02:29:34;9.20;;;6.00;;
4517;SDS011;2271;49.464;11.070;2022-12-07T02:32:23;7.00;;;5.33;;
4517;SDS011;2271;49.464;11.070;2022-12-07T02:37:48;8.77;;;5.80;;
4517;SDS011;2271;49.464;11.070;2022-12-07T02:40:24;9.00;;;6.57;;
4517;SDS011;2271;49.464;11.070;2022-12-07T02:43:24;8.60;;;5.70;;
4517;SDS011;2271;49.464;11.070;2022-12-07T02:45:57;8.90;;;5.70;;
4517;SDS011;2271;49.464;11.070;2022-12-07T02:48:26;8.67;;;6.70;;
4517;SDS011;2271;49.464;11.070;2022-12-07T02:50:53;7.97;;;5.77;;
4517;SDS011;2271;49.464;11.070;2022-12-07T02:53:29;8.53;;;6.67;;
4517;SDS011;2271;49.464;11.070;2022-12-07T02:56:07;7.50;;;5.87;;
4517;SDS011;2271;49.464;11.070;2022-12-07T03:02:08;7.93;;;6.03;;
4517;SDS011;2271;49.464;11.070;2022-12-07T03:10:18;8.77;;;6.20;;
4517;SDS011;2271;49.464;11.070;2022-12-07T03:15:40;10.00;;;6.77;;
4517;SDS011;2271;49.464;11.070;2022-12-07T03:18:13;7.90;;;5.97;;
4517;SDS011;2271;49.464;11.070;2022-12-07T03:20:43;8.73;;;6.57;;
4517;SDS011;2271;49.464;11.070;2022-12-07T03:23:11;8.07;;;5.93;;
4517;SDS011;2271;49.464;11.070;2022-12-07T03:25:43;7.73;;;6.07;;
4517;SDS011;2271;49.464;11.070;2022-12-07T03:28:16;7.50;;;6.23;;
4517;SDS011;2271;49.464;11.070;2022-12-07T03:30:49;9.73;;;6.43;;
4517;SDS011;2271;49.464;11.070;2022-12-07T03:33:29;9.53;;;6.33;;
4517;SDS011;2271;49.464;11.070;2022-12-07T03:36:03;9.13;;;6.93;;
4517;SDS011;2271;49.464;11.070;2022-12-07T03:38:59;10.20;;;7.20;;
4517;SDS011;2271;49.464;11.070;2022-12-07T03:41:32;14.93;;;6.63;;
4517;SDS011;2271;49.464;11.070;2022-12-07T03:44:01;7.30;;;5.97;;
4517;SDS011;2271;49.464;11.070;2022-12-07T03:46:43;10.60;;;6.53;;
4517;SDS011;2271;49.464;11.070;2022-12-07T03:49:25;12.13;;;7.17;;
4517;SDS011;2271;49.464;11.070;2022-12-07T03:55:14;6.90;;;5.60;;
4517;SDS011;2271;49.464;11.070;2022-12-07T03:57:44;8.93;;;7.03;;
4517;SDS011;2271;49.464;11.070;2022-12-07T04:00:14;9.23;;;6.67;;
4517;SDS011;2271;49.464;11.070;2022-12-07T04:02:41;9.00;;;6.63;;
4517;SDS011;2271;49.464;11.070;2022-12-07T04:05:07;9.70;;;7.07;;
4517;SDS011;2271;49.464;11.070;2022-12-07T04:07:33;11.73;;;8.00;;
4517;SDS011;2271;49.464;11.070;2022-12-07T04:09:59;12.17;;;7.50;;
4517;SDS011;2271;49.464;11.070;2022-12-07T04:12:25;9.90;;;7.23;;
4517;SDS011;2271;49.464;11.070;2022-12-07T04:14:50;10.63;;;7.70;;
4517;SDS011;2271;49.464;11.070;2022-12-07T04:17:16;12.40;;;6.53;;
4517;SDS011;2271;49.464;11.070;2022-12-07T04:19:41;10.10;;;7.40;;
4517;SDS011;2271;49.464;11.070;2022-12-07T04:22:07;11.67;;;6.87;;
4517;SDS011;2271;49.464;11.070;2022-12-07T04:24:33;9.07;;;7.20;;
4517;SDS011;2271;49.464;11.070;2022-12-07T04:26:59;11.27;;;8.10;;
4517;SDS011;2271;49.464;11.070;2022-12-07T04:29:25;11.70;;;7.37;;
4517;SDS011;2271;49.464;11.070;2022-12-07T04:31:51;13.23;;;7.50;;
4517;SDS011;2271;49.464;11.070;2022-12-07T04:34:17;9.87;;;6.83;;
4517;SDS011;2271;49.464;11.070;2022-12-07T04:36:44;11.17;;;7.43;;
4517;SDS011;2271;49.464;11.070;2022-12-07T04:39:20;9.57;;;7.77;;
4517;SDS011;2271;49.464;11.070;2022-12-07T04:41:56;8.97;;;6.77;;
4517;SDS011;2271;49.464;11.070;2022-12-07T04:44:23;11.47;;;7.40;;
4517;SDS011;2271;49.464;11.070;2022-12-07T04:46:49;10.77;;;7.57;;
4517;SDS011;2271;49.464;11.070;2022-12-07T04:49:15;11.47;;;7.37;;
4517;SDS011;2271;49.464;11.070;2022-12-07T04:51:42;9.57;;;7.13;;
4517;SDS011;2271;49.464;11.070;2022-12-07T04:54:08;10.33;;;7.63;;
4517;SDS011;2271;49.464;11.070;2022-12-07T04:56:34;11.57;;;7.47;;
4517;SDS011;2271;49.464;11.070;2022-12-07T04:59:00;10.97;;;7.37;;
4517;SDS011;2271;49.464;11.070;2022-12-07T05:01:26;10.50;;;8.40;;
4517;SDS011;2271;49.464;11.070;2022-12-07T05:03:52;11.00;;;7.60;;
4517;SDS011;2271;49.464;11.070;2022-12-07T05:06:18;12.20;;;8.10;;
4517;SDS011;2271;49.464;11.070;2022-12-07T05:08:44;13.17;;;8.17;;
4517;SDS011;2271;49.464;11.070;2022-12-07T05:11:10;11.90;;;8.70;;
4517;SDS011;2271;49.464;11.070;2022-12-07T05:13:56;9.33;;;6.87;;
4517;SDS011;2271;49.464;11.070;2022-12-07T05:16:22;10.60;;;7.30;;
4517;SDS011;2271;49.464;11.070;2022-12-07T05:18:48;10.87;;;8.10;;
4517;SDS011;2271;49.464;11.070;2022-12-07T05:21:13;16.63;;;9.40;;
4517;SDS011;2271;49.464;11.070;2022-12-07T05:23:39;12.13;;;7.83;;
4517;SDS011;2271;49.464;11.070;2022-12-07T05:26:05;10.97;;;7.27;;
4517;SDS011;2271;49.464;11.070;2022-12-07T05:28:30;12.30;;;8.93;;
4517;SDS011;2271;49.464;11.070;2022-12-07T05:30:56;15.20;;;8.87;;
4517;SDS011;2271;49.464;11.070;2022-12-07T05:33:21;14.57;;;7.57;;
4517;SDS011;2271;49.464;11.070;2022-12-07T05:35:47;16.03;;;8.17;;
4517;SDS011;2271;49.464;11.070;2022-12-07T05:38:12;14.60;;;9.63;;
4517;SDS011;2271;49.464;11.070;2022-12-07T05:40:38;14.73;;;9.27;;
4517;SDS011;2271;49.464;11.070;2022-12-07T05:43:04;17.27;;;8.67;;
4517;SDS011;2271;49.464;11.070;2022-12-07T05:45:29;12.57;;;8.50;;
4517;SDS011;2271;49.464;11.070;2022-12-07T05:47:55;12.67;;;8.97;;
4517;SDS011;2271;49.464;11.070;2022-12-07T05:50:20;14.67;;;9.90;;
4517;SDS011;2271;49.464;11.070;2022-12-07T05:52:46;14.03;;;8.90;;
4517;SDS011;2271;49.464;11.070;2022-12-07T05:55:12;16.97;;;9.93;;
4517;SDS011;2271;49.464;11.070;2022-12-07T05:57:38;17.37;;;9.23;;
4517;SDS011;2271;49.464;11.070;2022-12-07T06:00:04;12.77;;;9.20;;
4517;SDS011;2271;49.464;11.070;2022-12-07T06:02:30;13.23;;;8.97;;
4517;SDS011;2271;49.464;11.070;2022-12-07T06:04:55;14.27;;;9.67;;
4517;SDS011;2271;49.464;11.070;2022-12-07T06:07:21;12.80;;;8.70;;
4517;SDS011;2271;49.464;11.070;2022-12-07T06:09:47;18.80;;;9.97;;
4517;SDS011;2271;49.464;11.070;2022-12-07T06:12:12;15.93;;;9.17;;
4517;SDS011;2271;49.464;11.070;2022-12-07T06:14:57;13.60;;;8.93;;
4517;SDS011;2271;49.464;11.070;2022-12-07T06:17:23;13.83;;;9.00;;
4517;SDS011;2271;49.464;11.070;2022-12-07T06:19:48;14.13;;;9.37;;
4517;SDS011;2271;49.464;11.070;2022-12-07T06:22:14;14.03;;;10.10;;
4517;SDS011;2271;49.464;11.070;2022-12-07T06:24:41;15.00;;;10.03;;
4517;SDS011;2271;49.464;11.070;2022-12-07T06:27:07;15.37;;;9.97;;
4517;SDS011;2271;49.464;11.070;2022-12-07T06:29:33;14.10;;;9.20;;
4517;SDS011;2271;49.464;11.070;2022-12-07T06:31:59;14.77;;;9.23;;
4517;SDS011;2271;49.464;11.070;2022-12-07T06:34:24;16.53;;;9.87;;
4517;SDS011;2271;49.464;11.070;2022-12-07T06:36:51;16.97;;;9.63;;
4517;SDS011;2271;49.464;11.070;2022-12-07T06:39:19;16.27;;;10.90;;
4517;SDS011;2271;49.464;11.070;2022-12-07T06:41:46;23.30;;;11.13;;
4517;SDS011;2271;49.464;11.070;2022-12-07T06:44:12;16.87;;;11.83;;
4517;SDS011;2271;49.464;11.070;2022-12-07T06:46:37;16.93;;;10.87;;
4517;SDS011;2271;49.464;11.070;2022-12-07T06:49:03;20.73;;;10.63;;
4517;SDS011;2271;49.464;11.070;2022-12-07T06:51:30;15.33;;;9.27;;
4517;SDS011;2271;49.464;11.070;2022-12-07T06:53:56;18.07;;;10.10;;
4517;SDS011;2271;49.464;11.070;2022-12-07T06:56:21;15.73;;;10.00;;
4517;SDS011;2271;49.464;11.070;2022-12-07T06:58:47;17.67;;;11.63;;
4517;SDS011;2271;49.464;11.070;2022-12-07T07:01:15;18.97;;;12.07;;
4517;SDS011;2271;49.464;11.070;2022-12-07T07:03:41;18.13;;;10.23;;
4517;SDS011;2271;49.464;11.070;2022-12-07T07:06:08;20.30;;;10.43;;
4517;SDS011;2271;49.464;11.070;2022-12-07T07:08:34;16.80;;;9.87;;
4517;SDS011;2271;49.464;11.070;2022-12-07T07:11:01;13.80;;;9.00;;
4517;SDS011;2271;49.464;11.070;2022-12-07T07:13:27;15.87;;;9.30;;
4517;SDS011;2271;49.464;11.070;2022-12-07T07:15:52;15.07;;;9.77;;
4517;SDS011;2271;49.464;11.070;2022-12-07T07:18:19;17.90;;;9.10;;
4517;SDS011;2271;49.464;11.070;2022-12-07T07:20:44;18.17;;;9.63;;
4517;SDS011;2271;49.464;11.070;2022-12-07T07:23:10;13.63;;;8.40;;
4517;SDS011;2271;49.464;11.070;2022-12-07T07:25:36;17.37;;;10.40;;
4517;SDS011;2271;49.464;11.070;2022-12-07T07:28:02;19.40;;;10.93;;
4517;SDS011;2271;49.464;11.070;2022-12-07T07:30:28;18.37;;;10.20;;
4517;SDS011;2271;49.464;11.070;2022-12-07T07:32:57;18.17;;;10.43;;
4517;SDS011;2271;49.464;11.070;2022-12-07T07:35:23;17.03;;;9.70;;
4517;SDS011;2271;49.464;11.070;2022-12-07T07:37:50;21.33;;;10.53;;
4517;SDS011;2271;49.464;11.070;2022-12-07T07:40:15;16.17;;;10.03;;
4517;SDS011;2271;49.464;11.070;2022-12-07T07:42:41;16.63;;;9.90;;
4517;SDS011;2271;49.464;11.070;2022-12-07T07:45:07;16.20;;;8.93;;
4517;SDS011;2271;49.464;11.070;2022-12-07T07:47:33;16.03;;;9.77;;
4517;SDS011;2271;49.464;11.070;2022-12-07T07:49:58;16.37;;;9.97;;
4517;SDS011;2271;49.464;11.070;2022-12-07T07:52:24;14.97;;;10.53;;
4517;SDS011;2271;49.464;11.070;2022-12-07T07:54:50;12.17;;;8.77;;
4517;SDS011;2271;49.464;11.070;2022-12-07T07:57:16;21.97;;;11.63;;
4517;SDS011;2271;49.464;11.070;2022-12-07T07:59:42;16.40;;;9.47;;
4517;SDS011;2271;49.464;11.070;2022-12-07T08:02:17;14.50;;;9.60;;
4517;SDS011;2271;49.464;11.070;2022-12-07T08:04:44;18.40;;;10.67;;
4517;SDS011;2271;49.464;11.070;2022-12-07T08:07:10;16.30;;;9.50;;
4517;SDS011;2271;49.464;11.070;2022-12-07T08:09:36;13.87;;;10.03;;
4517;SDS011;2271;49.464;11.070;2022-12-07T08:12:02;15.17;;;9.73;;
4517;SDS011;2271;49.464;11.070;2022-12-07T08:14:28;15.70;;;10.23;;
4517;SDS011;2271;49.464;11.070;2022-12-07T08:16:54;17.23;;;9.53;;
4517;SDS011;2271;49.464;11.070;2022-12-07T08:19:20;15.77;;;9.93;;
4517;SDS011;2271;49.464;11.070;2022-12-07T08:21:46;15.83;;;10.23;;
4517;SDS011;2271;49.464;11.070;2022-12-07T08:24:12;17.17;;;10.90;;
4517;SDS011;2271;49.464;11.070;2022-12-07T08:26:39;15.17;;;9.17;;
4517;SDS011;2271;49.464;11.070;2022-12-07T08:29:05;16.87;;;9.70;;
4517;SDS011;2271;49.464;11.070;2022-12-07T08:31:30;16.13;;;10.57;;
4517;SDS011;2271;49.464;11.070;2022-12-07T08:33:56;16.97;;;9.93;;
4517;SDS011;2271;49.464;11.070;2022-12-07T08:36:22;19.03;;;10.43;;
4517;SDS011;2271;49.464;11.070;2022-12-07T08:38:48;16.93;;;10.83;;
4517;SDS011;2271;49.464;11.070;2022-12-07T08:41:14;17.23;;;10.00;;
4517;SDS011;2271;49.464;11.070;2022-12-07T08:43:41;17.00;;;10.83;;
4517;SDS011;2271;49.464;11.070;2022-12-07T08:48:40;19.27;;;11.10;;
4517;SDS011;2271;49.464;11.070;2022-12-07T08:51:17;17.33;;;10.03;;
4517;SDS011;2271;49.464;11.070;2022-12-07T08:53:44;15.33;;;9.43;;
4517;SDS011;2271;49.464;11.070;2022-12-07T08:56:10;15.00;;;9.17;;
4517;SDS011;2271;49.464;11.070;2022-12-07T08:58:36;19.57;;;9.23;;
4517;SDS011;2271;49.464;11.070;2022-12-07T09:01:03;17.27;;;9.53;;
4517;SDS011;2271;49.464;11.070;2022-12-07T09:03:30;15.87;;;8.93;;
4517;SDS011;2271;49.464;11.070;2022-12-07T09:05:56;13.10;;;8.17;;
4517;SDS011;2271;49.464;11.070;2022-12-07T09:08:23;13.07;;;7.50;;
4517;SDS011;2271;49.464;11.070;2022-12-07T09:10:54;13.63;;;7.97;;
4517;SDS011;2271;49.464;11.070;2022-12-07T09:13:20;13.20;;;9.03;;
4517;SDS011;2271;49.464;11.070;2022-12-07T09:15:46;13.70;;;7.93;;
4517;SDS011;2271;49.464;11.070;2022-12-07T09:18:11;12.93;;;8.47;;
4517;SDS011;2271;49.464;11.070;2022-12-07T09:20:37;14.37;;;8.70;;
4517;SDS011;2271;49.464;11.070;2022-12-07T09:23:04;12.53;;;7.60;;
4517;SDS011;2271;49.464;11.070;2022-12-07T09:25:31;10.97;;;7.37;;
4517;SDS011;2271;49.464;11.070;2022-12-07T09:27:57;11.47;;;7.03;;
4517;SDS011;2271;49.464;11.070;2022-12-07T09:30:24;11.83;;;7.20;;
4517;SDS011;2271;49.464;11.070;2022-12-07T09:32:52;10.43;;;7.60;;
4517;SDS011;2271;49.464;11.070;2022-12-07T09:35:19;13.30;;;8.53;;
4517;SDS011;2271;49.464;11.070;2022-12-07T09:37:44;12.07;;;7.50;;
4517;SDS011;2271;49.464;11.070;2022-12-07T09:40:10;13.33;;;7.73;;
4517;SDS011;2271;49.464;11.070;2022-12-07T09:42:41;12.70;;;7.83;;
4517;SDS011;2271;49.464;11.070;2022-12-07T09:45:14;13.63;;;7.93;;
4517;SDS011;2271;49.464;11.070;2022-12-07T09:47:52;12.53;;;7.97;;
4517;SDS011;2271;49.464;11.070;2022-12-07T09:50:22;10.97;;;7.30;;
4517;SDS011;2271;49.464;11.070;2022-12-07T09:52:50;11.27;;;7.23;;
4517;SDS011;2271;49.464;11.070;2022-12-07T09:55:21;10.77;;;7.60;;
4517;SDS011;2271;49.464;11.070;2022-12-07T09:57:53;10.43;;;6.80;;
4517;SDS011;2271;49.464;11.070;2022-12-07T10:00:20;13.68;;;9.15;;
4517;SDS011;2271;49.464;11.070;2022-12-07T10:02:57;9.13;;;7.27;;
4517;SDS011;2271;49.464;11.070;2022-12-07T10:05:28;12.77;;;7.30;;
4517;SDS011;2271;49.464;11.070;2022-12-07T10:08:08;9.73;;;6.50;;
4517;SDS011;2271;49.464;11.070;2022-12-07T10:10:36;10.47;;;7.17;;
4517;SDS011;2271;49.464;11.070;2022-12-07T10:13:04;11.57;;;6.40;;
4517;SDS011;2271;49.464;11.070;2022-12-07T10:18:15;10.87;;;7.03;;
4517;SDS011;2271;49.464;11.070;2022-12-07T10:21:03;9.43;;;7.27;;
4517;SDS011;2271;49.464;11.070;2022-12-07T10:23:36;12.80;;;7.80;;
4517;SDS011;2271;49.464;11.070;2022-12-07T10:26:19;11.07;;;7.97;;
4517;SDS011;2271;49.464;11.070;2022-12-07T10:28:51;10.80;;;6.97;;
4517;SDS011;2271;49.464;11.070;2022-12-07T10:31:18;10.97;;;7.13;;
4517;SDS011;2271;49.464;11.070;2022-12-07T10:33:56;10.40;;;7.20;;
4517;SDS011;2271;49.464;11.070;2022-12-07T10:36:25;12.53;;;8.27;;
4517;SDS011;2271;49.464;11.070;2022-12-07T10:39:02;12.70;;;9.05;;
4517;SDS011;2271;49.464;11.070;2022-12-07T10:41:28;9.50;;;7.07;;
4517;SDS011;2271;49.464;11.070;2022-12-07T10:43:55;8.00;;;6.03;;
4517;SDS011;2271;49.464;11.070;2022-12-07T10:49:09;9.47;;;6.80;;
4517;SDS011;2271;49.464;11.070;2022-12-07T11:00:31;11.43;;;7.10;;
4517;SDS011;2271;49.464;11.070;2022-12-07T11:16:51;9.30;;;6.73;;
4517;SDS011;2271;49.464;11.070;2022-12-07T11:30:20;10.50;;;6.87;;
4517;SDS011;2271;49.464;11.070;2022-12-07T11:32:57;10.17;;;6.50;;
4517;SDS011;2271;49.464;11.070;2022-12-07T11:38:24;10.30;;;7.63;;
4517;SDS011;2271;49.464;11.070;2022-12-07T11:41:00;12.00;;;7.17;;
4517;SDS011;2271;49.464;11.070;2022-12-07T11:43:37;9.27;;;6.47;;
4517;SDS011;2271;49.464;11.070;2022-12-07T11:46:35;10.53;;;8.10;;
4517;SDS011;2271;49.464;11.070;2022-12-07T11:51:58;11.50;;;7.80;;
4517;SDS011;2271;49.464;11.070;2022-12-07T11:54:28;11.77;;;8.33;;
4517;SDS011;2271;49.464;11.070;2022-12-07T11:57:02;12.80;;;8.10;;
4517;SDS011;2271;49.464;11.070;2022-12-07T12:02:14;10.57;;;7.40;;
4517;SDS011;2271;49.464;11.070;2022-12-07T12:04:58;10.83;;;7.57;;
4517;SDS011;2271;49.464;11.070;2022-12-07T12:07:36;11.93;;;8.17;;
4517;SDS011;2271;49.464;11.070;2022-12-07T12:10:06;11.63;;;7.33;;
4517;SDS011;2271;49.464;11.070;2022-12-07T12:15:46;14.50;;;7.77;;
4517;SDS011;2271;49.464;11.070;2022-12-07T12:23:37;8.87;;;6.83;;
4517;SDS011;2271;49.464;11.070;2022-12-07T12:26:14;9.80;;;6.87;;
4517;SDS011;2271;49.464;11.070;2022-12-07T12:28:54;10.13;;;7.43;;
4517;SDS011;2271;49.464;11.070;2022-12-07T12:31:34;9.37;;;6.43;;
4517;SDS011;2271;49.464;11.070;2022-12-07T12:34:29;11.00;;;7.33;;
4517;SDS011;2271;49.464;11.070;2022-12-07T12:36:58;11.03;;;7.67;;
4517;SDS011;2271;49.464;11.070;2022-12-07T12:39:24;9.37;;;6.70;;
4517;SDS011;2271;49.464;11.070;2022-12-07T12:41:51;10.17;;;6.17;;
4517;SDS011;2271;49.464;11.070;2022-12-07T12:46:57;7.87;;;6.33;;
4517;SDS011;2271;49.464;11.070;2022-12-07T12:54:59;9.20;;;7.37;;
4517;SDS011;2271;49.464;11.070;2022-12-07T12:57:36;10.47;;;7.93;;
4517;SDS011;2271;49.464;11.070;2022-12-07T13:12:56;10.13;;;6.70;;
4517;SDS011;2271;49.464;11.070;2022-12-07T13:18:03;9.57;;;6.87;;
4517;SDS011;2271;49.464;11.070;2022-12-07T13:20:49;8.97;;;7.10;;
4517;SDS011;2271;49.464;11.070;2022-12-07T13:23:36;9.50;;;6.60;;
4517;SDS011;2271;49.464;11.070;2022-12-07T13:28:44;9.57;;;6.47;;
4517;SDS011;2271;49.464;11.070;2022-12-07T13:31:13;10.10;;;7.07;;
4517;SDS011;2271;49.464;11.070;2022-12-07T13:33:58;10.20;;;6.43;;
4517;SDS011;2271;49.464;11.070;2022-12-07T13:36:25;8.57;;;6.07;;
4517;SDS011;2271;49.464;11.070;2022-12-07T13:38:53;9.77;;;7.00;;
4517;SDS011;2271;49.464;11.070;2022-12-07T13:41:20;9.47;;;7.20;;
4517;SDS011;2271;49.464;11.070;2022-12-07T13:46:15;9.37;;;6.53;;
4517;SDS011;2271;49.464;11.070;2022-12-07T13:48:48;7.57;;;6.17;;
4517;SDS011;2271;49.464;11.070;2022-12-07T13:53:54;8.97;;;6.87;;
4517;SDS011;2271;49.464;11.070;2022-12-07T13:56:34;11.00;;;7.47;;
4517;SDS011;2271;49.464;11.070;2022-12-07T13:59:01;10.87;;;7.63;;
4517;SDS011;2271;49.464;11.070;2022-12-07T14:01:28;12.37;;;7.40;;
4517;SDS011;2271;49.464;11.070;2022-12-07T14:03:56;10.00;;;6.50;;
4517;SDS011;2271;49.464;11.070;2022-12-07T14:06:50;11.20;;;6.70;;
4517;SDS011;2271;49.464;11.070;2022-12-07T14:09:18;12.40;;;6.63;;
4517;SDS011;2271;49.464;11.070;2022-12-07T14:11:48;8.80;;;6.20;;
4517;SDS011;2271;49.464;11.070;2022-12-07T14:14:17;9.17;;;6.07;;
4517;SDS011;2271;49.464;11.070;2022-12-07T14:16:54;9.87;;;6.03;;
4517;SDS011;2271;49.464;11.070;2022-12-07T14:19:50;8.57;;;6.23;;
4517;SDS011;2271;49.464;11.070;2022-12-07T14:27:39;13.83;;;6.80;;
4517;SDS011;2271;49.464;11.070;2022-12-07T14:30:15;10.00;;;6.33;;
4517;SDS011;2271;49.464;11.070;2022-12-07T14:32:42;9.90;;;5.50;;
4517;SDS011;2271;49.464;11.070;2022-12-07T14:35:13;7.93;;;6.20;;
4517;SDS011;2271;49.464;11.070;2022-12-07T14:37:42;6.63;;;3.10;;
4517;SDS011;2271;49.464;11.070;2022-12-07T14:40:12;9.97;;;7.03;;
4517;SDS011;2271;49.464;11.070;2022-12-07T14:42:39;15.60;;;6.07;;
4517;SDS011;2271;49.464;11.070;2022-12-07T14:45:11;5.47;;;4.50;;
4517;SDS011;2271;49.464;11.070;2022-12-07T14:47:40;8.20;;;4.90;;
4517;SDS011;2271;49.464;11.070;2022-12-07T14:50:06;8.30;;;5.70;;
4517;SDS011;2271;49.464;11.070;2022-12-07T14:52:32;6.70;;;4.93;;
4517;SDS011;2271;49.464;11.070;2022-12-07T14:54:58;5.57;;;4.50;;
4517;SDS011;2271;49.464;11.070;2022-12-07T14:57:24;5.73;;;3.83;;
4517;SDS011;2271;49.464;11.070;2022-12-07T14:59:49;7.13;;;4.00;;
4517;SDS011;2271;49.464;11.070;2022-12-07T15:02:15;8.27;;;5.53;;
4517;SDS011;2271;49.464;11.070;2022-12-07T15:04:41;7.77;;;4.60;;
4517;SDS011;2271;49.464;11.070;2022-12-07T15:07:10;6.20;;;4.77;;
4517;SDS011;2271;49.464;11.070;2022-12-07T15:09:46;5.93;;;4.93;;
4517;SDS011;2271;49.464;11.070;2022-12-07T15:12:12;5.13;;;3.10;;
4517;SDS011;2271;49.464;11.070;2022-12-07T15:14:38;7.77;;;6.10;;
4517;SDS011;2271;49.464;11.070;2022-12-07T15:17:03;7.23;;;5.57;;
4517;SDS011;2271;49.464;11.070;2022-12-07T15:19:29;9.27;;;7.07;;
4517;SDS011;2271;49.464;11.070;2022-12-07T15:21:55;10.97;;;6.57;;
4517;SDS011;2271;49.464;11.070;2022-12-07T15:24:21;8.90;;;6.60;;
4517;SDS011;2271;49.464;11.070;2022-12-07T15:26:48;10.50;;;6.47;;
4517;SDS011;2271;49.464;11.070;2022-12-07T15:29:14;11.63;;;7.33;;
4517;SDS011;2271;49.464;11.070;2022-12-07T15:31:40;11.53;;;8.13;;
4517;SDS011;2271;49.464;11.070;2022-12-07T15:34:07;24.33;;;8.80;;
4517;SDS011;2271;49.464;11.070;2022-12-07T15:36:33;14.00;;;8.67;;
4517;SDS011;2271;49.464;11.070;2022-12-07T15:39:00;11.83;;;7.63;;
4517;SDS011;2271;49.464;11.070;2022-12-07T15:41:26;18.47;;;9.67;;
4517;SDS011;2271;49.464;11.070;2022-12-07T15:43:51;15.10;;;8.87;;
4517;SDS011;2271;49.464;11.070;2022-12-07T15:46:36;13.20;;;8.17;;
4517;SDS011;2271;49.464;11.070;2022-12-07T15:49:14;12.80;;;7.67;;
4517;SDS011;2271;49.464;11.070;2022-12-07T15:51:42;12.00;;;8.20;;
4517;SDS011;2271;49.464;11.070;2022-12-07T15:54:11;12.90;;;8.60;;
4517;SDS011;2271;49.464;11.070;2022-12-07T15:56:40;11.63;;;8.57;;
4517;SDS011;2271;49.464;11.070;2022-12-07T15:59:06;14.63;;;8.63;;
4517;SDS011;2271;49.464;11.070;2022-12-07T16:01:32;13.83;;;8.90;;
4517;SDS011;2271;49.464;11.070;2022-12-07T16:03:57;13.00;;;8.53;;
4517;SDS011;2271;49.464;11.070;2022-12-07T16:06:24;13.13;;;9.47;;
4517;SDS011;2271;49.464;11.070;2022-12-07T16:08:50;15.00;;;9.50;;
4517;SDS011;2271;49.464;11.070;2022-12-07T16:11:15;13.90;;;8.47;;
4517;SDS011;2271;49.464;11.070;2022-12-07T16:13:41;15.07;;;8.40;;
4517;SDS011;2271;49.464;11.070;2022-12-07T16:16:08;11.17;;;8.57;;
4517;SDS011;2271;49.464;11.070;2022-12-07T16:18:36;15.20;;;8.73;;
4517;SDS011;2271;49.464;11.070;2022-12-07T16:21:02;12.20;;;7.93;;
4517;SDS011;2271;49.464;11.070;2022-12-07T16:23:28;12.70;;;8.47;;
4517;SDS011;2271;49.464;11.070;2022-12-07T16:25:54;16.53;;;9.83;;
4517;SDS011;2271;49.464;11.070;2022-12-07T16:28:20;13.53;;;8.70;;
4517;SDS011;2271;49.464;11.070;2022-12-07T16:30:46;14.07;;;8.93;;
4517;SDS011;2271;49.464;11.070;2022-12-07T16:33:11;14.13;;;8.10;;
4517;SDS011;2271;49.464;11.070;2022-12-07T16:35:40;14.20;;;8.20;;
4517;SDS011;2271;49.464;11.070;2022-12-07T16:38:06;12.47;;;8.10;;
4517;SDS011;2271;49.464;11.070;2022-12-07T16:40:32;16.33;;;8.43;;
4517;SDS011;2271;49.464;11.070;2022-12-07T16:42:57;13.53;;;9.07;;
4517;SDS011;2271;49.464;11.070;2022-12-07T16:45:23;17.87;;;8.83;;
4517;SDS011;2271;49.464;11.070;2022-12-07T16:47:49;14.73;;;8.00;;
4517;SDS011;2271;49.464;11.070;2022-12-07T16:50:14;11.50;;;7.60;;
4517;SDS011;2271;49.464;11.070;2022-12-07T16:52:40;15.73;;;8.63;;
4517;SDS011;2271;49.464;11.070;2022-12-07T16:55:06;12.40;;;8.50;;
4517;SDS011;2271;49.464;11.070;2022-12-07T16:57:31;12.40;;;8.67;;
4517;SDS011;2271;49.464;11.070;2022-12-07T16:59:57;11.93;;;8.27;;
4517;SDS011;2271;49.464;11.070;2022-12-07T17:02:23;16.70;;;8.83;;
4517;SDS011;2271;49.464;11.070;2022-12-07T17:04:48;13.83;;;7.97;;
4517;SDS011;2271;49.464;11.070;2022-12-07T17:07:15;14.87;;;8.70;;